sensor_id;sensor_type;location;lat;lon;timestamp;P1;durP1;ratioP1;P2;durP2;ratioP2
18170;SDS011;9210;48.358;10.902;2023-02-15T00:00:21;54.93;;;18.87;;
18170;SDS011;9210;48.358;10.902;2023-02-15T00:02:50;118.67;;;23.90;;
18170;SDS011;9210;48.358;10.902;2023-02-15T00:05:20;77.10;;;20.27;;
18170;SDS011;9210;48.358;10.902;2023-02-15T00:07:48;116.27;;;23.70;;
18170;SDS011;9210;48.358;10.902;2023-02-15T00:10:17;185.93;;;24.40;;
18170;SDS011;9210;48.358;10.902;2023-02-15T00:12:45;193.73;;;26.07;;
18170;SDS011;9210;48.358;10.902;2023-02-15T00:15:14;99.10;;;23.50;;
18170;SDS011;9210;48.358;10.902;2023-02-15T00:17:42;297.87;;;28.47;;
18170;SDS011;9210;48.358;10.902;2023-02-15T00:20:11;209.50;;;23.63;;
18170;SDS011;9210;48.358;10.902;2023-02-15T00:22:40;118.73;;;23.17;;
18170;SDS011;9210;48.358;10.902;2023-02-15T00:25:09;117.73;;;25.13;;
18170;SDS011;9210;48.358;10.902;2023-02-15T00:27:37;263.07;;;28.43;;
18170;SDS011;9210;48.358;10.902;2023-02-15T00:30:07;41.87;;;18.83;;
18170;SDS011;9210;48.358;10.902;2023-02-15T00:32:36;61.63;;;19.07;;
18170;SDS011;9210;48.358;10.902;2023-02-15T00:35:04;103.67;;;22.60;;
18170;SDS011;9210;48.358;10.902;2023-02-15T00:37:33;295.40;;;28.27;;
18170;SDS011;9210;48.358;10.902;2023-02-15T00:40:04;60.60;;;19.67;;
18170;SDS011;9210;48.358;10.902;2023-02-15T00:42:32;86.77;;;19.97;;
18170;SDS011;9210;48.358;10.902;2023-02-15T00:45:01;42.70;;;17.90;;
18170;SDS011;9210;48.358;10.902;2023-02-15T00:47:29;93.10;;;19.60;;
18170;SDS011;9210;48.358;10.902;2023-02-15T00:49:58;88.10;;;20.07;;
18170;SDS011;9210;48.358;10.902;2023-02-15T00:52:26;215.77;;;24.40;;
18170;SDS011;9210;48.358;10.902;2023-02-15T00:54:55;89.43;;;20.17;;
18170;SDS011;9210;48.358;10.902;2023-02-15T00:57:24;92.70;;;20.80;;
18170;SDS011;9210;48.358;10.902;2023-02-15T00:59:53;169.07;;;21.80;;
18170;SDS011;9210;48.358;10.902;2023-02-15T01:02:21;157.50;;;21.63;;
18170;SDS011;9210;48.358;10.902;2023-02-15T01:04:50;56.80;;;19.73;;
18170;SDS011;9210;48.358;10.902;2023-02-15T01:07:18;88.20;;;23.33;;
18170;SDS011;9210;48.358;10.902;2023-02-15T01:09:47;119.47;;;21.90;;
18170;SDS011;9210;48.358;10.902;2023-02-15T01:12:15;40.03;;;18.20;;
18170;SDS011;9210;48.358;10.902;2023-02-15T01:14:47;124.80;;;22.73;;
18170;SDS011;9210;48.358;10.902;2023-02-15T01:17:16;48.20;;;18.43;;
18170;SDS011;9210;48.358;10.902;2023-02-15T01:19:44;60.63;;;21.33;;
18170;SDS011;9210;48.358;10.902;2023-02-15T01:22:13;256.73;;;29.67;;
18170;SDS011;9210;48.358;10.902;2023-02-15T01:24:41;127.93;;;23.27;;
18170;SDS011;9210;48.358;10.902;2023-02-15T01:27:10;53.90;;;19.30;;
18170;SDS011;9210;48.358;10.902;2023-02-15T01:29:38;62.87;;;18.77;;
18170;SDS011;9210;48.358;10.902;2023-02-15T01:32:08;90.23;;;21.97;;
18170;SDS011;9210;48.358;10.902;2023-02-15T01:34:37;63.37;;;20.80;;
18170;SDS011;9210;48.358;10.902;2023-02-15T01:37:05;78.83;;;21.53;;
18170;SDS011;9210;48.358;10.902;2023-02-15T01:39:34;62.63;;;20.20;;
18170;SDS011;9210;48.358;10.902;2023-02-15T01:42:02;43.07;;;19.17;;
18170;SDS011;9210;48.358;10.902;2023-02-15T01:44:40;56.17;;;20.30;;
18170;SDS011;9210;48.358;10.902;2023-02-15T01:47:15;106.47;;;23.47;;
18170;SDS011;9210;48.358;10.902;2023-02-15T01:49:44;37.27;;;17.27;;
18170;SDS011;9210;48.358;10.902;2023-02-15T01:52:15;308.70;;;27.20;;
18170;SDS011;9210;48.358;10.902;2023-02-15T01:54:45;253.87;;;29.03;;
18170;SDS011;9210;48.358;10.902;2023-02-15T01:57:16;177.93;;;25.87;;
18170;SDS011;9210;48.358;10.902;2023-02-15T01:59:45;166.93;;;25.13;;
18170;SDS011;9210;48.358;10.902;2023-02-15T02:02:16;76.03;;;21.73;;
18170;SDS011;9210;48.358;10.902;2023-02-15T02:04:52;74.20;;;21.40;;
18170;SDS011;9210;48.358;10.902;2023-02-15T02:07:22;50.67;;;19.10;;
18170;SDS011;9210;48.358;10.902;2023-02-15T02:09:52;69.27;;;21.17;;
18170;SDS011;9210;48.358;10.902;2023-02-15T02:12:22;137.17;;;24.53;;
18170;SDS011;9210;48.358;10.902;2023-02-15T02:14:51;110.73;;;20.43;;
18170;SDS011;9210;48.358;10.902;2023-02-15T02:17:24;41.87;;;18.73;;
18170;SDS011;9210;48.358;10.902;2023-02-15T02:20:04;136.77;;;20.43;;
18170;SDS011;9210;48.358;10.902;2023-02-15T02:22:46;49.03;;;18.63;;
18170;SDS011;9210;48.358;10.902;2023-02-15T02:25:28;56.77;;;17.83;;
18170;SDS011;9210;48.358;10.902;2023-02-15T02:28:04;55.77;;;17.90;;
18170;SDS011;9210;48.358;10.902;2023-02-15T02:30:49;30.03;;;15.07;;
18170;SDS011;9210;48.358;10.902;2023-02-15T02:33:33;97.80;;;19.10;;
18170;SDS011;9210;48.358;10.902;2023-02-15T02:36:06;103.83;;;20.17;;
18170;SDS011;9210;48.358;10.902;2023-02-15T02:38:39;277.20;;;25.90;;
18170;SDS011;9210;48.358;10.902;2023-02-15T02:41:12;230.33;;;25.90;;
18170;SDS011;9210;48.358;10.902;2023-02-15T02:43:47;33.63;;;17.10;;
18170;SDS011;9210;48.358;10.902;2023-02-15T02:46:19;93.17;;;18.50;;
18170;SDS011;9210;48.358;10.902;2023-02-15T02:48:50;55.07;;;18.33;;
18170;SDS011;9210;48.358;10.902;2023-02-15T02:51:19;151.77;;;19.60;;
18170;SDS011;9210;48.358;10.902;2023-02-15T02:53:49;51.53;;;15.87;;
18170;SDS011;9210;48.358;10.902;2023-02-15T02:56:21;123.97;;;22.00;;
18170;SDS011;9210;48.358;10.902;2023-02-15T02:58:51;80.73;;;20.20;;
18170;SDS011;9210;48.358;10.902;2023-02-15T03:01:23;87.10;;;18.17;;
18170;SDS011;9210;48.358;10.902;2023-02-15T03:03:54;162.80;;;24.97;;
18170;SDS011;9210;48.358;10.902;2023-02-15T03:06:26;58.40;;;18.40;;
18170;SDS011;9210;48.358;10.902;2023-02-15T03:08:58;62.10;;;18.63;;
18170;SDS011;9210;48.358;10.902;2023-02-15T03:11:29;75.80;;;20.47;;
18170;SDS011;9210;48.358;10.902;2023-02-15T03:13:59;64.60;;;19.03;;
18170;SDS011;9210;48.358;10.902;2023-02-15T03:16:27;79.93;;;22.83;;
18170;SDS011;9210;48.358;10.902;2023-02-15T03:18:57;58.67;;;18.43;;
18170;SDS011;9210;48.358;10.902;2023-02-15T03:21:33;130.30;;;22.73;;
18170;SDS011;9210;48.358;10.902;2023-02-15T03:24:07;361.27;;;32.27;;
18170;SDS011;9210;48.358;10.902;2023-02-15T03:26:36;59.83;;;18.80;;
18170;SDS011;9210;48.358;10.902;2023-02-15T03:29:06;72.50;;;21.50;;
18170;SDS011;9210;48.358;10.902;2023-02-15T03:31:36;68.50;;;20.93;;
18170;SDS011;9210;48.358;10.902;2023-02-15T03:34:08;72.17;;;22.10;;
18170;SDS011;9210;48.358;10.902;2023-02-15T03:36:39;67.80;;;19.40;;
18170;SDS011;9210;48.358;10.902;2023-02-15T03:39:11;35.93;;;17.43;;
18170;SDS011;9210;48.358;10.902;2023-02-15T03:41:42;42.33;;;19.33;;
18170;SDS011;9210;48.358;10.902;2023-02-15T03:44:13;41.77;;;17.83;;
18170;SDS011;9210;48.358;10.902;2023-02-15T03:46:43;37.77;;;17.67;;
18170;SDS011;9210;48.358;10.902;2023-02-15T03:49:16;32.90;;;16.30;;
18170;SDS011;9210;48.358;10.902;2023-02-15T03:51:46;33.70;;;17.13;;
18170;SDS011;9210;48.358;10.902;2023-02-15T03:54:16;34.50;;;16.10;;
18170;SDS011;9210;48.358;10.902;2023-02-15T03:57:06;35.90;;;15.93;;
18170;SDS011;9210;48.358;10.902;2023-02-15T03:59:53;30.67;;;15.47;;
18170;SDS011;9210;48.358;10.902;2023-02-15T04:02:40;46.17;;;17.93;;
18170;SDS011;9210;48.358;10.902;2023-02-15T04:05:13;30.43;;;15.30;;
18170;SDS011;9210;48.358;10.902;2023-02-15T04:07:42;25.90;;;13.50;;
18170;SDS011;9210;48.358;10.902;2023-02-15T04:10:10;25.67;;;12.83;;
18170;SDS011;9210;48.358;10.902;2023-02-15T04:12:57;25.63;;;13.43;;
18170;SDS011;9210;48.358;10.902;2023-02-15T04:15:25;24.07;;;13.03;;
18170;SDS011;9210;48.358;10.902;2023-02-15T04:18:12;31.17;;;13.40;;
18170;SDS011;9210;48.358;10.902;2023-02-15T04:20:44;24.60;;;12.83;;
18170;SDS011;9210;48.358;10.902;2023-02-15T04:23:30;23.90;;;12.47;;
18170;SDS011;9210;48.358;10.902;2023-02-15T04:26:15;30.93;;;13.93;;
18170;SDS011;9210;48.358;10.902;2023-02-15T04:28:44;42.90;;;17.33;;
18170;SDS011;9210;48.358;10.902;2023-02-15T04:31:12;24.60;;;13.17;;
18170;SDS011;9210;48.358;10.902;2023-02-15T04:33:41;28.63;;;14.57;;
18170;SDS011;9210;48.358;10.902;2023-02-15T04:36:11;24.83;;;13.10;;
18170;SDS011;9210;48.358;10.902;2023-02-15T04:38:40;20.27;;;11.10;;
18170;SDS011;9210;48.358;10.902;2023-02-15T04:41:08;19.70;;;10.67;;
18170;SDS011;9210;48.358;10.902;2023-02-15T04:43:38;19.30;;;10.80;;
18170;SDS011;9210;48.358;10.902;2023-02-15T04:46:07;22.77;;;11.97;;
18170;SDS011;9210;48.358;10.902;2023-02-15T04:48:35;25.83;;;12.77;;
18170;SDS011;9210;48.358;10.902;2023-02-15T04:51:04;80.07;;;15.90;;
18170;SDS011;9210;48.358;10.902;2023-02-15T04:53:35;32.90;;;14.80;;
18170;SDS011;9210;48.358;10.902;2023-02-15T04:56:03;28.60;;;13.87;;
18170;SDS011;9210;48.358;10.902;2023-02-15T04:58:32;25.90;;;13.53;;
18170;SDS011;9210;48.358;10.902;2023-02-15T05:01:01;24.63;;;11.67;;
18170;SDS011;9210;48.358;10.902;2023-02-15T05:03:29;32.47;;;15.20;;
18170;SDS011;9210;48.358;10.902;2023-02-15T05:05:58;27.03;;;13.50;;
18170;SDS011;9210;48.358;10.902;2023-02-15T05:08:27;28.20;;;13.73;;
18170;SDS011;9210;48.358;10.902;2023-02-15T05:10:57;106.87;;;18.90;;
18170;SDS011;9210;48.358;10.902;2023-02-15T05:13:26;75.90;;;18.87;;
18170;SDS011;9210;48.358;10.902;2023-02-15T05:15:54;30.90;;;15.50;;
18170;SDS011;9210;48.358;10.902;2023-02-15T05:18:22;121.97;;;22.97;;
18170;SDS011;9210;48.358;10.902;2023-02-15T05:20:51;50.67;;;18.37;;
18170;SDS011;9210;48.358;10.902;2023-02-15T05:23:19;72.87;;;20.20;;
18170;SDS011;9210;48.358;10.902;2023-02-15T05:25:49;32.17;;;15.97;;
18170;SDS011;9210;48.358;10.902;2023-02-15T05:28:42;36.90;;;16.20;;
18170;SDS011;9210;48.358;10.902;2023-02-15T05:31:11;38.20;;;15.00;;
18170;SDS011;9210;48.358;10.902;2023-02-15T05:33:41;68.70;;;20.63;;
18170;SDS011;9210;48.358;10.902;2023-02-15T05:36:10;36.17;;;16.07;;
18170;SDS011;9210;48.358;10.902;2023-02-15T05:38:40;26.93;;;14.53;;
18170;SDS011;9210;48.358;10.902;2023-02-15T05:41:09;30.87;;;14.90;;
18170;SDS011;9210;48.358;10.902;2023-02-15T05:43:38;67.17;;;18.90;;
18170;SDS011;9210;48.358;10.902;2023-02-15T05:46:08;60.30;;;18.37;;
18170;SDS011;9210;48.358;10.902;2023-02-15T05:48:37;42.73;;;18.33;;
18170;SDS011;9210;48.358;10.902;2023-02-15T05:51:06;64.90;;;21.03;;
18170;SDS011;9210;48.358;10.902;2023-02-15T05:53:36;65.10;;;21.00;;
18170;SDS011;9210;48.358;10.902;2023-02-15T05:56:05;40.40;;;19.03;;
18170;SDS011;9210;48.358;10.902;2023-02-15T05:58:34;44.97;;;19.23;;
18170;SDS011;9210;48.358;10.902;2023-02-15T06:01:08;46.17;;;19.57;;
18170;SDS011;9210;48.358;10.902;2023-02-15T06:03:37;33.27;;;16.30;;
18170;SDS011;9210;48.358;10.902;2023-02-15T06:06:05;29.53;;;15.17;;
18170;SDS011;9210;48.358;10.902;2023-02-15T06:08:34;31.33;;;15.17;;
18170;SDS011;9210;48.358;10.902;2023-02-15T06:11:03;26.13;;;12.97;;
18170;SDS011;9210;48.358;10.902;2023-02-15T06:13:32;25.40;;;13.67;;
18170;SDS011;9210;48.358;10.902;2023-02-15T06:16:04;25.40;;;13.73;;
18170;SDS011;9210;48.358;10.902;2023-02-15T06:18:34;25.10;;;13.40;;
18170;SDS011;9210;48.358;10.902;2023-02-15T06:21:03;22.47;;;12.43;;
18170;SDS011;9210;48.358;10.902;2023-02-15T06:23:32;24.57;;;13.07;;
18170;SDS011;9210;48.358;10.902;2023-02-15T06:26:02;26.47;;;13.47;;
18170;SDS011;9210;48.358;10.902;2023-02-15T06:28:31;30.70;;;14.27;;
18170;SDS011;9210;48.358;10.902;2023-02-15T06:30:59;26.87;;;13.67;;
18170;SDS011;9210;48.358;10.902;2023-02-15T06:33:28;23.27;;;12.23;;
18170;SDS011;9210;48.358;10.902;2023-02-15T06:36:01;24.03;;;12.77;;
18170;SDS011;9210;48.358;10.902;2023-02-15T06:38:31;30.77;;;15.30;;
18170;SDS011;9210;48.358;10.902;2023-02-15T06:41:00;27.47;;;13.73;;
18170;SDS011;9210;48.358;10.902;2023-02-15T06:43:29;26.70;;;13.70;;
18170;SDS011;9210;48.358;10.902;2023-02-15T06:45:57;27.70;;;13.83;;
18170;SDS011;9210;48.358;10.902;2023-02-15T06:48:26;29.70;;;14.70;;
18170;SDS011;9210;48.358;10.902;2023-02-15T06:50:55;25.77;;;12.87;;
18170;SDS011;9210;48.358;10.902;2023-02-15T06:53:25;20.07;;;12.30;;
18170;SDS011;9210;48.358;10.902;2023-02-15T06:55:59;22.77;;;12.37;;
18170;SDS011;9210;48.358;10.902;2023-02-15T06:58:29;21.47;;;12.47;;
18170;SDS011;9210;48.358;10.902;2023-02-15T07:00:58;27.23;;;14.17;;
18170;SDS011;9210;48.358;10.902;2023-02-15T07:03:27;31.37;;;13.07;;
18170;SDS011;9210;48.358;10.902;2023-02-15T07:05:56;23.60;;;13.17;;
18170;SDS011;9210;48.358;10.902;2023-02-15T07:08:26;23.30;;;12.80;;
18170;SDS011;9210;48.358;10.902;2023-02-15T07:10:56;20.50;;;12.47;;
18170;SDS011;9210;48.358;10.902;2023-02-15T07:13:44;35.23;;;13.37;;
18170;SDS011;9210;48.358;10.902;2023-02-15T07:16:12;22.17;;;11.80;;
18170;SDS011;9210;48.358;10.902;2023-02-15T07:18:41;18.40;;;10.80;;
18170;SDS011;9210;48.358;10.902;2023-02-15T07:21:09;20.40;;;11.57;;
18170;SDS011;9210;48.358;10.902;2023-02-15T07:23:40;19.97;;;11.07;;
18170;SDS011;9210;48.358;10.902;2023-02-15T07:26:08;19.00;;;10.83;;
18170;SDS011;9210;48.358;10.902;2023-02-15T07:28:37;20.00;;;11.00;;
18170;SDS011;9210;48.358;10.902;2023-02-15T07:31:05;23.10;;;12.60;;
18170;SDS011;9210;48.358;10.902;2023-02-15T07:33:34;20.70;;;11.87;;
18170;SDS011;9210;48.358;10.902;2023-02-15T07:36:03;25.93;;;13.30;;
18170;SDS011;9210;48.358;10.902;2023-02-15T07:38:33;21.30;;;11.40;;
18170;SDS011;9210;48.358;10.902;2023-02-15T07:41:04;34.50;;;15.70;;
18170;SDS011;9210;48.358;10.902;2023-02-15T07:43:34;25.60;;;13.57;;
18170;SDS011;9210;48.358;10.902;2023-02-15T07:46:03;25.83;;;12.93;;
18170;SDS011;9210;48.358;10.902;2023-02-15T07:48:32;25.67;;;12.57;;
18170;SDS011;9210;48.358;10.902;2023-02-15T07:51:00;40.53;;;17.33;;
18170;SDS011;9210;48.358;10.902;2023-02-15T07:53:32;31.57;;;15.77;;
18170;SDS011;9210;48.358;10.902;2023-02-15T07:56:06;45.77;;;18.50;;
18170;SDS011;9210;48.358;10.902;2023-02-15T07:58:34;29.20;;;14.37;;
18170;SDS011;9210;48.358;10.902;2023-02-15T08:01:19;26.60;;;13.40;;
18170;SDS011;9210;48.358;10.902;2023-02-15T08:03:48;29.20;;;14.73;;
18170;SDS011;9210;48.358;10.902;2023-02-15T08:06:20;22.73;;;12.07;;
18170;SDS011;9210;48.358;10.902;2023-02-15T08:08:49;23.10;;;12.90;;
18170;SDS011;9210;48.358;10.902;2023-02-15T08:11:19;27.57;;;13.03;;
18170;SDS011;9210;48.358;10.902;2023-02-15T08:13:59;20.40;;;10.63;;
18170;SDS011;9210;48.358;10.902;2023-02-15T08:16:31;29.03;;;11.73;;
18170;SDS011;9210;48.358;10.902;2023-02-15T08:19:01;19.40;;;10.53;;
18170;SDS011;9210;48.358;10.902;2023-02-15T08:21:30;17.73;;;10.30;;
18170;SDS011;9210;48.358;10.902;2023-02-15T08:23:59;21.80;;;11.60;;
18170;SDS011;9210;48.358;10.902;2023-02-15T08:26:29;20.80;;;11.30;;
18170;SDS011;9210;48.358;10.902;2023-02-15T08:28:58;18.93;;;10.67;;
18170;SDS011;9210;48.358;10.902;2023-02-15T08:31:27;16.90;;;9.80;;
18170;SDS011;9210;48.358;10.902;2023-02-15T08:33:56;16.17;;;9.57;;
18170;SDS011;9210;48.358;10.902;2023-02-15T08:36:25;19.47;;;11.03;;
18170;SDS011;9210;48.358;10.902;2023-02-15T08:38:56;16.97;;;9.90;;
18170;SDS011;9210;48.358;10.902;2023-02-15T08:41:26;21.13;;;11.57;;
18170;SDS011;9210;48.358;10.902;2023-02-15T08:43:58;24.47;;;13.27;;
18170;SDS011;9210;48.358;10.902;2023-02-15T08:46:27;21.30;;;11.57;;
18170;SDS011;9210;48.358;10.902;2023-02-15T08:48:57;23.80;;;12.73;;
18170;SDS011;9210;48.358;10.902;2023-02-15T08:51:26;19.87;;;11.07;;
18170;SDS011;9210;48.358;10.902;2023-02-15T08:53:56;23.03;;;13.03;;
18170;SDS011;9210;48.358;10.902;2023-02-15T08:56:26;20.33;;;10.60;;
18170;SDS011;9210;48.358;10.902;2023-02-15T08:58:55;18.97;;;10.73;;
18170;SDS011;9210;48.358;10.902;2023-02-15T09:01:25;27.10;;;13.57;;
18170;SDS011;9210;48.358;10.902;2023-02-15T09:03:55;24.93;;;13.23;;
18170;SDS011;9210;48.358;10.902;2023-02-15T09:06:23;28.97;;;14.00;;
18170;SDS011;9210;48.358;10.902;2023-02-15T09:08:52;27.97;;;13.63;;
18170;SDS011;9210;48.358;10.902;2023-02-15T09:11:21;23.57;;;11.60;;
18170;SDS011;9210;48.358;10.902;2023-02-15T09:13:51;17.97;;;10.53;;
18170;SDS011;9210;48.358;10.902;2023-02-15T09:16:21;27.77;;;12.93;;
18170;SDS011;9210;48.358;10.902;2023-02-15T09:18:51;24.50;;;13.23;;
18170;SDS011;9210;48.358;10.902;2023-02-15T09:21:20;22.50;;;12.40;;
18170;SDS011;9210;48.358;10.902;2023-02-15T09:23:51;18.97;;;10.73;;
18170;SDS011;9210;48.358;10.902;2023-02-15T09:26:20;21.80;;;11.63;;
18170;SDS011;9210;48.358;10.902;2023-02-15T09:28:51;22.13;;;12.03;;
18170;SDS011;9210;48.358;10.902;2023-02-15T09:31:22;19.53;;;10.70;;
18170;SDS011;9210;48.358;10.902;2023-02-15T09:33:53;15.97;;;9.50;;
18170;SDS011;9210;48.358;10.902;2023-02-15T09:36:22;16.97;;;10.13;;
18170;SDS011;9210;48.358;10.902;2023-02-15T09:38:53;19.13;;;11.07;;
18170;SDS011;9210;48.358;10.902;2023-02-15T09:41:33;20.40;;;11.20;;
18170;SDS011;9210;48.358;10.902;2023-02-15T09:44:11;20.87;;;11.60;;
18170;SDS011;9210;48.358;10.902;2023-02-15T09:46:56;22.73;;;11.83;;
18170;SDS011;9210;48.358;10.902;2023-02-15T09:49:30;22.07;;;11.67;;
18170;SDS011;9210;48.358;10.902;2023-02-15T09:52:05;23.67;;;12.83;;
18170;SDS011;9210;48.358;10.902;2023-02-15T09:54:42;20.53;;;11.43;;
18170;SDS011;9210;48.358;10.902;2023-02-15T09:57:16;19.33;;;11.23;;
18170;SDS011;9210;48.358;10.902;2023-02-15T09:59:50;28.53;;;14.57;;
18170;SDS011;9210;48.358;10.902;2023-02-15T10:02:26;20.67;;;11.90;;
18170;SDS011;9210;48.358;10.902;2023-02-15T10:05:00;21.90;;;12.37;;
18170;SDS011;9210;48.358;10.902;2023-02-15T10:07:36;23.90;;;12.13;;
18170;SDS011;9210;48.358;10.902;2023-02-15T10:10:10;20.73;;;12.47;;
18170;SDS011;9210;48.358;10.902;2023-02-15T10:12:44;20.30;;;11.90;;
18170;SDS011;9210;48.358;10.902;2023-02-15T10:15:22;23.70;;;12.23;;
18170;SDS011;9210;48.358;10.902;2023-02-15T10:17:57;25.63;;;12.97;;
18170;SDS011;9210;48.358;10.902;2023-02-15T10:20:31;19.63;;;11.87;;
18170;SDS011;9210;48.358;10.902;2023-02-15T10:23:08;18.10;;;10.33;;
18170;SDS011;9210;48.358;10.902;2023-02-15T10:25:42;17.03;;;10.47;;
18170;SDS011;9210;48.358;10.902;2023-02-15T10:28:15;16.47;;;10.60;;
18170;SDS011;9210;48.358;10.902;2023-02-15T10:30:46;17.70;;;10.63;;
18170;SDS011;9210;48.358;10.902;2023-02-15T10:33:19;17.13;;;10.17;;
18170;SDS011;9210;48.358;10.902;2023-02-15T10:35:52;16.67;;;9.77;;
18170;SDS011;9210;48.358;10.902;2023-02-15T10:38:27;22.17;;;12.27;;
18170;SDS011;9210;48.358;10.902;2023-02-15T10:41:02;21.07;;;11.50;;
18170;SDS011;9210;48.358;10.902;2023-02-15T10:43:37;21.67;;;12.70;;
18170;SDS011;9210;48.358;10.902;2023-02-15T10:46:08;20.10;;;11.97;;
18170;SDS011;9210;48.358;10.902;2023-02-15T10:48:52;20.47;;;11.83;;
18170;SDS011;9210;48.358;10.902;2023-02-15T10:51:26;15.93;;;9.87;;
18170;SDS011;9210;48.358;10.902;2023-02-15T10:54:05;16.53;;;10.60;;
18170;SDS011;9210;48.358;10.902;2023-02-15T10:56:38;18.47;;;11.43;;
18170;SDS011;9210;48.358;10.902;2023-02-15T10:59:14;22.90;;;12.60;;
18170;SDS011;9210;48.358;10.902;2023-02-15T11:01:47;18.53;;;11.70;;
18170;SDS011;9210;48.358;10.902;2023-02-15T11:07:18;24.30;;;13.37;;
18170;SDS011;9210;48.358;10.902;2023-02-15T11:09:48;19.10;;;12.17;;
18170;SDS011;9210;48.358;10.902;2023-02-15T11:12:18;25.50;;;14.67;;
18170;SDS011;9210;48.358;10.902;2023-02-15T11:14:49;20.77;;;12.10;;
18170;SDS011;9210;48.358;10.902;2023-02-15T11:17:21;21.53;;;13.87;;
18170;SDS011;9210;48.358;10.902;2023-02-15T11:19:52;27.10;;;14.50;;
18170;SDS011;9210;48.358;10.902;2023-02-15T11:22:24;24.60;;;13.80;;
18170;SDS011;9210;48.358;10.902;2023-02-15T11:24:53;20.73;;;12.77;;
18170;SDS011;9210;48.358;10.902;2023-02-15T11:27:24;20.40;;;11.73;;
18170;SDS011;9210;48.358;10.902;2023-02-15T11:29:55;17.77;;;11.17;;
18170;SDS011;9210;48.358;10.902;2023-02-15T11:32:28;21.93;;;13.20;;
18170;SDS011;9210;48.358;10.902;2023-02-15T11:35:00;17.27;;;10.90;;
18170;SDS011;9210;48.358;10.902;2023-02-15T11:37:32;23.40;;;13.80;;
18170;SDS011;9210;48.358;10.902;2023-02-15T11:40:02;19.43;;;12.20;;
18170;SDS011;9210;48.358;10.902;2023-02-15T11:42:31;19.03;;;11.27;;
18170;SDS011;9210;48.358;10.902;2023-02-15T11:45:02;16.97;;;11.03;;
18170;SDS011;9210;48.358;10.902;2023-02-15T11:47:33;23.33;;;14.17;;
18170;SDS011;9210;48.358;10.902;2023-02-15T11:50:01;20.80;;;12.77;;
18170;SDS011;9210;48.358;10.902;2023-02-15T11:52:31;20.23;;;13.17;;
18170;SDS011;9210;48.358;10.902;2023-02-15T11:55:00;21.53;;;12.83;;
18170;SDS011;9210;48.358;10.902;2023-02-15T11:57:31;20.37;;;12.87;;
18170;SDS011;9210;48.358;10.902;2023-02-15T12:00:03;21.83;;;12.90;;
18170;SDS011;9210;48.358;10.902;2023-02-15T12:02:34;27.47;;;14.77;;
18170;SDS011;9210;48.358;10.902;2023-02-15T12:05:05;26.33;;;15.10;;
18170;SDS011;9210;48.358;10.902;2023-02-15T12:07:40;23.73;;;14.83;;
18170;SDS011;9210;48.358;10.902;2023-02-15T12:10:15;26.93;;;15.90;;
18170;SDS011;9210;48.358;10.902;2023-02-15T12:12:49;23.10;;;13.23;;
18170;SDS011;9210;48.358;10.902;2023-02-15T12:15:38;25.23;;;14.60;;
18170;SDS011;9210;48.358;10.902;2023-02-15T12:18:16;23.53;;;14.27;;
18170;SDS011;9210;48.358;10.902;2023-02-15T12:20:47;25.50;;;15.37;;
18170;SDS011;9210;48.358;10.902;2023-02-15T12:23:18;26.97;;;15.93;;
18170;SDS011;9210;48.358;10.902;2023-02-15T12:25:49;29.33;;;16.40;;
18170;SDS011;9210;48.358;10.902;2023-02-15T12:28:23;27.10;;;15.53;;
18170;SDS011;9210;48.358;10.902;2023-02-15T12:30:54;27.40;;;15.23;;
18170;SDS011;9210;48.358;10.902;2023-02-15T12:33:26;25.00;;;14.67;;
18170;SDS011;9210;48.358;10.902;2023-02-15T12:35:59;27.90;;;16.23;;
18170;SDS011;9210;48.358;10.902;2023-02-15T12:38:31;29.40;;;15.80;;
18170;SDS011;9210;48.358;10.902;2023-02-15T12:41:01;24.23;;;14.87;;
18170;SDS011;9210;48.358;10.902;2023-02-15T12:43:32;28.57;;;15.57;;
18170;SDS011;9210;48.358;10.902;2023-02-15T12:46:18;25.37;;;15.53;;
18170;SDS011;9210;48.358;10.902;2023-02-15T12:49:04;26.53;;;15.70;;
18170;SDS011;9210;48.358;10.902;2023-02-15T12:51:45;29.80;;;16.43;;
18170;SDS011;9210;48.358;10.902;2023-02-15T12:59:58;28.90;;;14.70;;
18170;SDS011;9210;48.358;10.902;2023-02-15T13:02:29;33.33;;;16.27;;
18170;SDS011;9210;48.358;10.902;2023-02-15T13:05:10;26.90;;;14.90;;
18170;SDS011;9210;48.358;10.902;2023-02-15T13:07:45;28.33;;;15.40;;
18170;SDS011;9210;48.358;10.902;2023-02-15T13:10:21;24.57;;;13.63;;
18170;SDS011;9210;48.358;10.902;2023-02-15T13:12:51;26.77;;;15.50;;
18170;SDS011;9210;48.358;10.902;2023-02-15T13:15:24;28.90;;;14.23;;
18170;SDS011;9210;48.358;10.902;2023-02-15T13:17:55;27.13;;;14.93;;
18170;SDS011;9210;48.358;10.902;2023-02-15T13:20:23;27.13;;;14.80;;
18170;SDS011;9210;48.358;10.902;2023-02-15T13:22:54;28.63;;;15.23;;
18170;SDS011;9210;48.358;10.902;2023-02-15T13:25:25;25.60;;;14.70;;
18170;SDS011;9210;48.358;10.902;2023-02-15T13:27:57;25.10;;;14.23;;
18170;SDS011;9210;48.358;10.902;2023-02-15T13:30:27;29.50;;;14.23;;
18170;SDS011;9210;48.358;10.902;2023-02-15T13:32:59;25.83;;;14.13;;
18170;SDS011;9210;48.358;10.902;2023-02-15T13:35:32;28.23;;;14.57;;
18170;SDS011;9210;48.358;10.902;2023-02-15T13:38:23;30.27;;;14.63;;
18170;SDS011;9210;48.358;10.902;2023-02-15T13:40:59;24.80;;;14.17;;
18170;SDS011;9210;48.358;10.902;2023-02-15T13:43:35;32.77;;;15.57;;
18170;SDS011;9210;48.358;10.902;2023-02-15T13:46:20;25.53;;;15.03;;
18170;SDS011;9210;48.358;10.902;2023-02-15T13:48:53;27.77;;;14.77;;
18170;SDS011;9210;48.358;10.902;2023-02-15T13:51:26;32.47;;;15.33;;
18170;SDS011;9210;48.358;10.902;2023-02-15T13:54:04;30.10;;;16.37;;
18170;SDS011;9210;48.358;10.902;2023-02-15T13:56:41;30.47;;;16.40;;
18170;SDS011;9210;48.358;10.902;2023-02-15T13:59:25;32.97;;;16.53;;
18170;SDS011;9210;48.358;10.902;2023-02-15T14:01:56;34.60;;;17.13;;
18170;SDS011;9210;48.358;10.902;2023-02-15T14:04:29;37.03;;;17.00;;
18170;SDS011;9210;48.358;10.902;2023-02-15T14:07:24;37.77;;;17.20;;
18170;SDS011;9210;48.358;10.902;2023-02-15T14:09:58;31.73;;;16.77;;
18170;SDS011;9210;48.358;10.902;2023-02-15T14:12:41;33.60;;;16.93;;
18170;SDS011;9210;48.358;10.902;2023-02-15T14:15:20;36.07;;;17.20;;
18170;SDS011;9210;48.358;10.902;2023-02-15T14:17:54;31.50;;;17.80;;
18170;SDS011;9210;48.358;10.902;2023-02-15T14:20:30;33.90;;;18.70;;
18170;SDS011;9210;48.358;10.902;2023-02-15T14:23:01;34.87;;;17.77;;
18170;SDS011;9210;48.358;10.902;2023-02-15T14:25:33;32.83;;;16.97;;
18170;SDS011;9210;48.358;10.902;2023-02-15T14:28:08;35.37;;;18.87;;
18170;SDS011;9210;48.358;10.902;2023-02-15T14:30:38;34.57;;;17.53;;
18170;SDS011;9210;48.358;10.902;2023-02-15T14:33:28;35.50;;;17.50;;
18170;SDS011;9210;48.358;10.902;2023-02-15T14:36:00;40.33;;;16.97;;
18170;SDS011;9210;48.358;10.902;2023-02-15T14:38:35;34.00;;;17.13;;
18170;SDS011;9210;48.358;10.902;2023-02-15T14:41:07;30.60;;;17.30;;
18170;SDS011;9210;48.358;10.902;2023-02-15T14:43:44;33.57;;;18.00;;
18170;SDS011;9210;48.358;10.902;2023-02-15T14:46:18;39.53;;;18.17;;
18170;SDS011;9210;48.358;10.902;2023-02-15T14:48:50;31.90;;;17.27;;
18170;SDS011;9210;48.358;10.902;2023-02-15T14:54:10;39.63;;;18.90;;
18170;SDS011;9210;48.358;10.902;2023-02-15T14:57:20;35.77;;;19.40;;
18170;SDS011;9210;48.358;10.902;2023-02-15T14:59:40;37.63;;;18.40;;